createdAt,value
2023-05-01T00:02:29.243Z,4.90
2023-05-01T00:05:05.159Z,5.20
2023-05-01T00:07:32.273Z,5.40
2023-05-01T00:09:59.587Z,6.38
2023-05-01T00:12:27.422Z,6.18
2023-05-01T00:14:55.357Z,5.47
2023-05-01T00:17:23.230Z,5.85
2023-05-01T00:19:54.857Z,6.72
2023-05-01T00:22:22.164Z,5.85
2023-05-01T00:24:50.153Z,5.97
2023-05-01T00:27:17.312Z,5.43
2023-05-01T00:29:44.349Z,6.50
2023-05-01T00:32:11.457Z,6.38
2023-05-01T00:38:15.145Z,6.57
2023-05-01T00:40:50.994Z,5.95
2023-05-01T00:43:18.076Z,5.95
2023-05-01T00:45:46.575Z,5.32
2023-05-01T00:48:15.542Z,5.68
2023-05-01T00:51:02.343Z,7.25
2023-05-01T00:53:38.451Z,5.75
2023-05-01T00:56:06.511Z,5.28
2023-05-01T00:58:33.567Z,5.18
2023-05-01T01:01:01.861Z,5.38
2023-05-01T01:03:29.040Z,5.72
2023-05-01T01:06:17.618Z,6.70
2023-05-01T01:09:23.873Z,4.60
2023-05-01T01:12:06.812Z,4.93
2023-05-01T01:14:55.962Z,4.88
2023-05-01T01:17:47.268Z,5.32
2023-05-01T01:20:31.825Z,4.80
2023-05-01T01:23:37.396Z,4.25
2023-05-01T01:26:37.548Z,5.15
2023-05-01T01:29:57.629Z,4.68
2023-05-01T01:33:11.136Z,5.10
2023-05-01T01:35:42.788Z,5.25
2023-05-01T01:38:21.204Z,4.82
2023-05-01T01:41:18.227Z,5.35
2023-05-01T01:43:56.245Z,4.78
2023-05-01T01:46:25.315Z,5.20
2023-05-01T01:48:56.637Z,5.40
2023-05-01T01:51:26.934Z,5.60
2023-05-01T01:53:58.699Z,6.53
2023-05-01T01:56:27.969Z,5.50
2023-05-01T01:58:56.045Z,5.43
2023-05-01T02:01:24.635Z,5.97
2023-05-01T02:03:53.393Z,6.47
2023-05-01T02:06:23.233Z,5.50
2023-05-01T02:08:51.789Z,5.40
2023-05-01T02:11:22.169Z,6.40
2023-05-01T02:13:51.857Z,5.90
2023-05-01T02:16:22.213Z,8.50
2023-05-01T02:18:50.880Z,5.88
2023-05-01T02:21:19.757Z,6.40
2023-05-01T02:23:46.916Z,6.78
2023-05-01T02:26:19.519Z,6.90
2023-05-01T02:28:46.840Z,5.80
2023-05-01T02:31:13.851Z,5.82
2023-05-01T02:33:41.355Z,6.47
2023-05-01T02:36:08.730Z,6.50
2023-05-01T02:38:36.317Z,7.03
2023-05-01T02:41:04.362Z,6.88
2023-05-01T02:43:33.884Z,6.15
2023-05-01T02:46:04.653Z,6.13
2023-05-01T02:48:34.604Z,5.10
2023-05-01T02:51:02.607Z,4.75
2023-05-01T02:53:32.830Z,4.55
2023-05-01T02:56:10.146Z,4.97
2023-05-01T02:58:38.480Z,3.92
2023-05-01T03:01:06.398Z,5.15
2023-05-01T03:03:33.673Z,3.47
2023-05-01T03:06:00.680Z,3.75
2023-05-01T03:08:28.253Z,4.38
2023-05-01T03:10:55.254Z,5.13
2023-05-01T03:13:22.714Z,3.63
2023-05-01T03:15:49.627Z,4.22
2023-05-01T03:18:16.690Z,4.00
2023-05-01T03:20:56.870Z,4.53
2023-05-01T03:23:25.738Z,4.35
2023-05-01T03:25:52.717Z,4.40
2023-05-01T03:28:20.833Z,4.15
2023-05-01T03:30:48.072Z,5.18
2023-05-01T03:33:15.295Z,5.60
2023-05-01T03:35:42.707Z,4.57
2023-05-01T03:38:10.410Z,4.38
2023-05-01T03:41:06.446Z,4.93
2023-05-01T03:43:52.308Z,3.90
2023-05-01T03:46:33.597Z,4.28
2023-05-01T03:49:01.623Z,3.75
2023-05-01T03:51:35.441Z,3.80
2023-05-01T03:54:03.786Z,4.95
2023-05-01T03:56:39.885Z,4.28
2023-05-01T03:59:07.608Z,4.05
2023-05-01T04:01:34.908Z,4.45
2023-05-01T04:04:02.467Z,5.85
2023-05-01T04:06:29.855Z,4.35
2023-05-01T04:08:56.827Z,4.85
2023-05-01T04:11:23.773Z,4.32
2023-05-01T04:13:50.947Z,4.22
2023-05-01T04:16:21.153Z,4.68
2023-05-01T04:18:48.740Z,5.15
2023-05-01T04:21:17.688Z,4.55
2023-05-01T04:23:46.906Z,4.60
2023-05-01T04:26:14.884Z,4.25
2023-05-01T04:28:41.907Z,4.60
2023-05-01T04:31:11.625Z,5.65
2023-05-01T04:33:38.620Z,4.30
2023-05-01T04:36:07.224Z,4.47
2023-05-01T04:38:37.377Z,4.65
2023-05-01T04:41:07.893Z,5.05
2023-05-01T04:43:34.844Z,6.18
2023-05-01T04:46:04.814Z,4.53
2023-05-01T04:48:33.272Z,4.68
2023-05-01T04:51:00.740Z,4.25
2023-05-01T04:53:32.018Z,5.43
2023-05-01T04:55:59.366Z,4.43
2023-05-01T04:58:26.545Z,5.22
2023-05-01T05:00:59.413Z,4.68
2023-05-01T05:03:26.484Z,4.95
2023-05-01T05:05:53.599Z,4.88
2023-05-01T05:08:21.145Z,4.63
2023-05-01T05:11:00.349Z,4.25
2023-05-01T05:13:35.764Z,4.68
2023-05-01T05:16:09.698Z,4.15
2023-05-01T05:18:36.735Z,3.95
2023-05-01T05:21:08.881Z,5.18
2023-05-01T05:23:36.498Z,5.68
2023-05-01T05:26:04.213Z,3.88
2023-05-01T05:28:31.504Z,4.75
2023-05-01T05:30:59.315Z,5.55
2023-05-01T05:33:26.829Z,4.50
2023-05-01T05:35:54.608Z,5.10
2023-05-01T05:38:26.845Z,5.10
2023-05-01T05:40:59.590Z,4.80
2023-05-01T05:43:28.258Z,5.35
2023-05-01T05:46:00.699Z,6.22
2023-05-01T05:48:29.687Z,6.07
2023-05-01T05:50:57.631Z,6.03
2023-05-01T05:53:26.081Z,5.25
2023-05-01T05:55:54.322Z,5.20
2023-05-01T05:58:22.502Z,4.20
2023-05-01T06:00:52.985Z,4.40
2023-05-01T06:03:20.300Z,4.80
2023-05-01T06:05:48.142Z,4.38
2023-05-01T06:08:15.894Z,4.90
2023-05-01T06:10:44.257Z,4.25
2023-05-01T06:13:14.300Z,4.40
2023-05-01T06:15:45.399Z,4.13
2023-05-01T06:18:13.200Z,4.90
2023-05-01T06:20:40.390Z,4.25
2023-05-01T06:23:09.678Z,5.85
2023-05-01T06:25:45.219Z,3.75
2023-05-01T06:28:12.239Z,3.67
2023-05-01T06:30:40.766Z,4.82
2023-05-01T06:33:07.941Z,4.65
2023-05-01T06:35:35.311Z,3.70
2023-05-01T06:38:03.104Z,4.07
2023-05-01T06:40:31.765Z,4.30
2023-05-01T06:42:58.815Z,3.95
2023-05-01T06:45:28.396Z,3.58
2023-05-01T06:47:56.270Z,2.97
2023-05-01T06:50:23.740Z,4.88
2023-05-01T06:52:51.115Z,3.50
2023-05-01T06:55:18.946Z,5.28
2023-05-01T06:57:46.422Z,3.75
2023-05-01T07:00:15.230Z,4.13
2023-05-01T07:02:45.258Z,3.33
2023-05-01T07:05:13.134Z,3.13
2023-05-01T07:07:44.597Z,3.40
2023-05-01T07:10:17.434Z,4.00
2023-05-01T07:12:44.449Z,5.20
2023-05-01T07:15:11.654Z,3.30
2023-05-01T07:17:38.762Z,6.20
2023-05-01T07:20:06.948Z,2.97
2023-05-01T07:22:33.969Z,2.90
2023-05-01T07:25:03.287Z,4.32
2023-05-01T07:27:30.284Z,2.63
2023-05-01T07:29:58.324Z,2.72
2023-05-01T07:32:25.574Z,2.55
2023-05-01T07:34:54.950Z,5.35
2023-05-01T07:37:23.940Z,3.63
2023-05-01T07:39:51.585Z,3.25
2023-05-01T07:42:18.870Z,2.88
2023-05-01T07:44:45.909Z,2.88
2023-05-01T07:47:12.937Z,6.82
2023-05-01T07:49:40.574Z,3.38
2023-05-01T07:52:08.437Z,2.35
2023-05-01T07:54:35.834Z,3.17
2023-05-01T07:57:04.654Z,2.13
2023-05-01T07:59:32.330Z,2.65
2023-05-01T08:01:59.324Z,4.07
2023-05-01T08:04:28.004Z,3.35
2023-05-01T08:06:55.102Z,3.38
2023-05-01T08:09:22.128Z,3.25
2023-05-01T08:11:49.123Z,2.95
2023-05-01T08:14:17.803Z,4.65
2023-05-01T08:16:45.101Z,5.78
2023-05-01T08:19:12.226Z,3.13
2023-05-01T08:21:39.340Z,5.65
2023-05-01T08:24:09.731Z,2.30
2023-05-01T08:26:38.078Z,3.08
2023-05-01T08:29:05.265Z,3.60
2023-05-01T08:31:35.968Z,3.53
2023-05-01T08:34:04.547Z,2.45
2023-05-01T08:36:33.499Z,4.55
2023-05-01T08:39:00.735Z,3.15
2023-05-01T08:41:29.217Z,2.85
2023-05-01T08:44:04.209Z,4.50
2023-05-01T08:46:49.220Z,2.45
2023-05-01T08:49:18.811Z,2.83
2023-05-01T08:51:48.621Z,3.92
2023-05-01T08:54:17.870Z,4.57
2023-05-01T08:56:47.547Z,2.22
2023-05-01T08:59:16.121Z,2.35
2023-05-01T09:01:45.168Z,2.38
2023-05-01T09:04:14.531Z,1.70
2023-05-01T09:06:45.056Z,1.58
2023-05-01T09:09:12.608Z,2.17
2023-05-01T09:11:40.350Z,2.03
2023-05-01T09:14:08.612Z,4.57
2023-05-01T09:16:36.137Z,3.85
2023-05-01T09:19:03.568Z,3.40
2023-05-01T09:21:32.058Z,2.60
2023-05-01T09:23:59.127Z,2.95
2023-05-01T09:26:26.928Z,5.45
2023-05-01T09:28:58.116Z,4.18
2023-05-01T09:31:29.198Z,3.45
2023-05-01T09:34:00.071Z,3.95
2023-05-01T09:36:31.255Z,4.38
2023-05-01T09:39:02.077Z,6.22
2023-05-01T09:41:33.022Z,3.78
2023-05-01T09:44:00.197Z,4.05
2023-05-01T09:46:27.731Z,5.72
2023-05-01T09:48:59.050Z,4.82
2023-05-01T09:51:29.128Z,6.35
2023-05-01T09:54:01.946Z,5.35
2023-05-01T09:56:32.758Z,3.90
2023-05-01T09:59:16.627Z,3.95
2023-05-01T10:01:46.624Z,3.17
2023-05-01T10:04:14.425Z,3.17
2023-05-01T10:06:42.397Z,3.80
2023-05-01T10:09:17.364Z,4.15
2023-05-01T10:11:56.162Z,5.85
2023-05-01T10:14:28.276Z,2.88
2023-05-01T10:16:58.068Z,4.45
2023-05-01T10:19:26.250Z,4.57
2023-05-01T10:21:59.751Z,6.05
2023-05-01T10:24:31.017Z,3.60
2023-05-01T10:26:58.780Z,4.50
2023-05-01T10:29:29.330Z,4.10
2023-05-01T10:31:56.842Z,6.90
2023-05-01T10:34:27.060Z,3.28
2023-05-01T10:37:07.425Z,2.88
2023-05-01T10:39:38.926Z,7.70
2023-05-01T10:42:14.109Z,2.55
2023-05-01T10:44:42.704Z,2.72
2023-05-01T10:47:30.926Z,2.63
2023-05-01T10:50:15.929Z,4.80
2023-05-01T10:53:17.617Z,4.22
2023-05-01T10:55:46.961Z,3.65
2023-05-01T10:58:41.221Z,5.03
2023-05-01T11:03:56.956Z,2.45
2023-05-01T11:06:24.773Z,2.15
2023-05-01T11:08:52.324Z,2.15
2023-05-01T11:11:22.833Z,1.48
2023-05-01T11:14:02.075Z,1.50
2023-05-01T11:16:39.362Z,2.30
2023-05-01T11:19:07.926Z,1.52
2023-05-01T11:21:38.523Z,1.90
2023-05-01T11:24:09.671Z,2.60
2023-05-01T11:26:40.446Z,2.53
2023-05-01T11:29:11.716Z,2.03
2023-05-01T11:31:39.732Z,6.80
2023-05-01T11:34:07.212Z,3.30
2023-05-01T11:36:52.284Z,3.50
2023-05-01T11:39:20.495Z,2.05
2023-05-01T11:41:47.910Z,2.15
2023-05-01T11:44:18.838Z,2.15
2023-05-01T11:46:57.677Z,1.50
2023-05-01T11:49:30.929Z,4.78
2023-05-01T11:51:59.381Z,1.77
2023-05-01T11:54:27.185Z,2.58
2023-05-01T11:57:01.201Z,5.68
2023-05-01T11:59:28.513Z,1.30
2023-05-01T12:01:55.828Z,2.15
2023-05-01T12:04:29.739Z,4.13
2023-05-01T12:06:59.387Z,1.55
2023-05-01T12:09:27.574Z,3.80
2023-05-01T12:11:55.783Z,1.65
2023-05-01T12:14:24.671Z,1.33
2023-05-01T12:16:51.993Z,1.92
2023-05-01T12:19:20.191Z,5.45
2023-05-01T12:21:48.700Z,1.42
2023-05-01T12:24:18.877Z,4.35
2023-05-01T12:26:47.036Z,1.35
2023-05-01T12:29:14.110Z,6.05
2023-05-01T12:31:50.045Z,1.70
2023-05-01T12:34:17.251Z,3.47
2023-05-01T12:36:54.592Z,2.03
2023-05-01T12:39:23.643Z,2.25
2023-05-01T12:41:52.028Z,4.97
2023-05-01T12:44:28.096Z,2.55
2023-05-01T12:47:07.417Z,3.67
2023-05-01T12:49:38.264Z,2.63
2023-05-01T12:52:08.114Z,4.35
2023-05-01T12:54:43.769Z,2.40
2023-05-01T12:57:18.278Z,2.63
2023-05-01T12:59:47.359Z,4.40
2023-05-01T13:02:17.805Z,3.13
2023-05-01T13:04:49.110Z,4.72
2023-05-01T13:07:19.529Z,3.65
2023-05-01T13:09:59.456Z,3.05
2023-05-01T13:12:28.872Z,5.50
2023-05-01T13:14:56.914Z,6.90
2023-05-01T13:17:34.936Z,7.38
2023-05-01T13:20:04.658Z,3.30
2023-05-01T13:22:38.183Z,4.15
2023-05-01T13:25:20.685Z,6.25
2023-05-01T13:27:52.631Z,4.15
2023-05-01T13:30:31.519Z,3.80
2023-05-01T13:32:58.967Z,7.13
2023-05-01T13:35:27.462Z,5.18
2023-05-01T13:37:55.543Z,3.58
2023-05-01T13:40:26.426Z,4.82
2023-05-01T13:42:56.446Z,4.40
2023-05-01T13:45:24.836Z,4.88
2023-05-01T13:47:52.376Z,5.63
2023-05-01T13:50:19.921Z,6.22
2023-05-01T13:52:47.816Z,5.20
2023-05-01T13:55:15.679Z,6.43
2023-05-01T13:57:43.439Z,5.35
2023-05-01T14:00:19.275Z,6.53
2023-05-01T14:02:49.199Z,4.95
2023-05-01T14:05:16.918Z,4.83
2023-05-01T14:07:55.499Z,4.35
2023-05-01T14:10:24.327Z,5.35
2023-05-01T14:13:30.249Z,7.95
2023-05-01T14:15:57.270Z,5.30
2023-05-01T14:18:24.774Z,7.05
2023-05-01T14:20:52.395Z,6.22
2023-05-01T14:23:20.857Z,5.57
2023-05-01T14:25:49.376Z,7.03
2023-05-01T14:28:46.219Z,6.47
2023-05-01T14:31:21.918Z,5.60
2023-05-01T14:33:55.718Z,6.35
2023-05-01T14:36:23.807Z,6.20
2023-05-01T14:38:53.256Z,7.50
2023-05-01T14:41:21.229Z,6.38
2023-05-01T14:43:53.184Z,7.80
2023-05-01T14:47:02.446Z,6.80
2023-05-01T14:49:36.084Z,8.45
2023-05-01T14:52:03.916Z,7.10
2023-05-01T14:55:01.898Z,7.18
2023-05-01T14:57:55.973Z,6.47
2023-05-01T15:01:25.399Z,9.02
2023-05-01T15:07:26.143Z,7.72
2023-05-01T15:12:55.769Z,7.80
2023-05-01T15:15:22.938Z,6.88
2023-05-01T15:17:50.431Z,7.40
2023-05-01T15:20:18.023Z,6.38
2023-05-01T15:22:45.835Z,7.03
2023-05-01T15:25:13.215Z,6.70
2023-05-01T15:27:40.361Z,9.77
2023-05-01T15:30:10.176Z,8.20
2023-05-01T15:32:38.464Z,8.13
2023-05-01T15:35:05.929Z,8.85
2023-05-01T15:37:33.181Z,11.70
2023-05-01T15:40:00.455Z,8.93
2023-05-01T15:42:27.783Z,11.30
2023-05-01T15:44:58.999Z,9.73
2023-05-01T15:47:26.497Z,8.68
2023-05-01T15:50:22.067Z,7.72
2023-05-01T15:53:17.975Z,9.90
2023-05-01T15:56:16.265Z,9.07
2023-05-01T15:59:16.324Z,8.93
2023-05-01T16:02:17.180Z,8.07
2023-05-01T16:04:56.841Z,8.23
2023-05-01T16:07:24.716Z,8.65
2023-05-01T16:09:52.221Z,10.20
2023-05-01T16:12:19.183Z,9.45
2023-05-01T16:14:48.566Z,10.82
2023-05-01T16:17:18.468Z,11.05
2023-05-01T16:19:46.650Z,10.80
2023-05-01T16:22:17.287Z,9.70
2023-05-01T16:24:44.802Z,12.00
2023-05-01T16:27:13.292Z,10.18
2023-05-01T16:29:40.980Z,10.07
2023-05-01T16:32:11.427Z,9.93
2023-05-01T16:34:40.426Z,9.65
2023-05-01T16:37:07.949Z,10.30
2023-05-01T16:39:38.568Z,9.65
2023-05-01T16:42:06.364Z,9.70
2023-05-01T16:44:35.792Z,10.00
2023-05-01T16:47:03.571Z,11.45
2023-05-01T16:49:30.851Z,10.13
2023-05-01T16:52:30.613Z,11.32
2023-05-01T16:56:14.951Z,11.27
2023-05-01T16:59:12.221Z,13.35
2023-05-01T17:02:42.469Z,10.32
2023-05-01T17:05:21.247Z,10.82
2023-05-01T17:07:48.221Z,11.50
2023-05-01T17:10:15.379Z,10.50
2023-05-01T17:12:42.403Z,10.82
2023-05-01T17:15:10.120Z,10.15
2023-05-01T17:17:55.191Z,11.57
2023-05-01T17:20:34.436Z,11.13
2023-05-01T17:23:01.478Z,10.23
2023-05-01T17:25:39.527Z,11.93
2023-05-01T17:28:19.036Z,11.93
2023-05-01T17:30:46.092Z,11.23
2023-05-01T17:33:14.157Z,11.30
2023-05-01T17:35:41.505Z,11.73
2023-05-01T17:38:08.581Z,16.08
2023-05-01T17:40:35.604Z,11.18
2023-05-01T17:43:03.409Z,13.63
2023-05-01T17:45:50.580Z,13.05
2023-05-01T17:48:23.317Z,13.38
2023-05-01T17:51:11.414Z,13.27
2023-05-01T17:53:49.125Z,13.35
2023-05-01T17:56:17.750Z,13.55
2023-05-01T17:58:44.878Z,20.15
2023-05-01T18:01:11.862Z,13.95
2023-05-01T18:03:39.190Z,15.27
2023-05-01T18:06:06.397Z,19.50
2023-05-01T18:08:33.988Z,13.52
2023-05-01T18:11:01.016Z,13.40
2023-05-01T18:13:28.834Z,14.07
2023-05-01T18:15:56.484Z,12.82
2023-05-01T18:18:24.362Z,13.40
2023-05-01T18:21:27.085Z,15.00
2023-05-01T18:24:22.377Z,15.45
2023-05-01T19:45:54.024Z,16.70
2023-05-01T19:57:27.917Z,17.48
2023-05-01T20:19:39.860Z,17.05
2023-05-01T20:29:51.034Z,14.82
2023-05-01T20:32:18.115Z,14.82
2023-05-01T20:34:45.187Z,14.63
2023-05-01T20:37:12.325Z,17.50
2023-05-01T20:39:39.237Z,15.65
2023-05-01T20:42:06.371Z,16.00
2023-05-01T20:44:33.302Z,17.75
2023-05-01T20:47:00.414Z,14.55
2023-05-01T20:49:28.473Z,13.82
2023-05-01T20:51:57.002Z,13.73
2023-05-01T20:54:24.173Z,13.82
2023-05-01T20:56:51.152Z,13.98
2023-05-01T20:59:18.182Z,14.25
2023-05-01T21:01:45.145Z,12.77
2023-05-01T21:04:13.164Z,13.45
2023-05-01T21:06:40.799Z,13.43
2023-05-01T21:09:11.093Z,13.40
2023-05-01T21:11:40.777Z,15.88
2023-05-01T21:14:07.968Z,15.52
2023-05-01T21:16:35.121Z,14.18
2023-05-01T21:19:02.276Z,15.60
2023-05-01T21:21:29.625Z,15.65
2023-05-01T21:23:57.467Z,21.73
2023-05-01T21:26:25.208Z,15.23
2023-05-01T21:28:52.237Z,13.63
2023-05-01T21:31:19.683Z,12.45
2023-05-01T21:33:47.716Z,13.55
2023-05-01T21:36:18.338Z,12.48
2023-05-01T21:38:46.171Z,14.48
2023-05-01T21:41:17.035Z,13.13
2023-05-01T21:43:44.498Z,12.15
2023-05-01T21:46:17.190Z,13.30
2023-05-01T21:48:50.931Z,13.32
2023-05-01T21:51:18.819Z,14.07
2023-05-01T21:53:46.039Z,16.73
2023-05-01T21:56:14.493Z,14.85
2023-05-01T21:58:41.673Z,18.98
2023-05-01T22:01:09.642Z,16.67
2023-05-01T22:03:41.971Z,16.20
2023-05-01T22:06:09.877Z,17.50
2023-05-01T22:08:37.533Z,15.65
2023-05-01T22:11:06.456Z,21.65
2023-05-01T22:13:34.879Z,18.80
2023-05-01T22:16:02.425Z,18.67
2023-05-01T22:18:29.531Z,18.92
2023-05-01T22:20:56.741Z,22.98
2023-05-01T22:23:23.878Z,19.35
2023-05-01T22:25:51.308Z,19.35
2023-05-01T22:28:18.829Z,21.50
2023-05-01T22:30:47.763Z,22.23
2023-05-01T22:33:14.805Z,23.75
2023-05-01T22:35:42.314Z,21.17
2023-05-01T22:38:09.482Z,21.45
2023-05-01T22:40:36.512Z,22.20
2023-05-01T22:43:05.641Z,19.38
2023-05-01T22:45:32.647Z,23.17
2023-05-01T22:48:00.803Z,20.30
2023-05-01T22:50:28.404Z,19.52
2023-05-01T22:52:55.871Z,19.83
2023-05-01T22:55:23.267Z,19.98
2023-05-01T22:57:51.271Z,18.23
2023-05-01T23:00:19.028Z,18.92
2023-05-01T23:02:46.322Z,19.60
2023-05-01T23:05:13.479Z,19.42
2023-05-01T23:07:40.585Z,19.17
2023-05-01T23:10:08.172Z,20.33
2023-05-01T23:12:35.319Z,19.85
2023-05-01T23:15:02.848Z,19.23
2023-05-01T23:17:35.989Z,20.95
2023-05-01T23:20:08.921Z,19.75
2023-05-01T23:22:40.836Z,21.63
2023-05-01T23:25:14.094Z,21.73
2023-05-01T23:27:43.179Z,19.77
2023-05-01T23:30:12.345Z,19.20
2023-05-01T23:32:39.936Z,20.90
2023-05-01T23:35:14.289Z,19.45
2023-05-01T23:37:42.667Z,17.67
2023-05-01T23:40:10.767Z,19.65
2023-05-01T23:42:39.558Z,24.30
2023-05-01T23:45:08.271Z,19.58
2023-05-01T23:47:35.978Z,19.38
2023-05-01T23:50:03.711Z,19.83
2023-05-01T23:52:31.540Z,18.70
2023-05-01T23:54:59.169Z,19.17
2023-05-01T23:57:26.321Z,24.42
2023-05-01T23:59:53.334Z,17.17
